createdAt,value
2017-10-17T00:00:05.289Z,9.02
2017-10-17T00:02:35.508Z,8.98
2017-10-17T00:05:04.740Z,8.92
2017-10-17T00:07:34.193Z,8.93
2017-10-17T00:10:03.433Z,8.88
2017-10-17T00:12:32.676Z,8.91
2017-10-17T00:15:01.803Z,8.93
2017-10-17T00:17:31.295Z,8.93
2017-10-17T00:20:00.805Z,8.88
2017-10-17T00:22:30.037Z,8.83
2017-10-17T00:24:59.268Z,8.77
2017-10-17T00:27:28.388Z,8.72
2017-10-17T00:29:57.865Z,8.80
2017-10-17T00:32:36.882Z,8.92
2017-10-17T00:35:16.928Z,9.01
2017-10-17T00:37:46.178Z,8.93
2017-10-17T00:40:15.509Z,8.86
2017-10-17T00:42:44.824Z,8.76
2017-10-17T00:45:13.811Z,8.70
2017-10-17T00:47:43.173Z,8.67
2017-10-17T00:50:12.481Z,8.73
2017-10-17T00:52:41.975Z,8.75
2017-10-17T00:55:10.953Z,8.77
2017-10-17T00:57:40.277Z,8.68
2017-10-17T01:00:09.544Z,8.65
2017-10-17T01:02:38.786Z,8.69
2017-10-17T01:05:07.966Z,8.65
2017-10-17T01:07:37.590Z,8.56
2017-10-17T01:10:06.904Z,8.49
2017-10-17T01:12:36.150Z,8.45
2017-10-17T01:15:05.631Z,8.57
2017-10-17T01:17:34.909Z,8.48
2017-10-17T01:23:04.285Z,8.56
2017-10-17T01:25:33.517Z,8.57
2017-10-17T01:28:02.526Z,8.53
2017-10-17T01:30:31.773Z,8.50
2017-10-17T01:33:05.286Z,8.52
2017-10-17T01:35:34.517Z,8.45
2017-10-17T01:38:07.093Z,8.41
2017-10-17T01:40:36.078Z,8.35
2017-10-17T01:43:05.856Z,8.31
2017-10-17T01:45:34.845Z,8.24
2017-10-17T01:48:06.657Z,8.19
2017-10-17T01:50:36.418Z,8.18
2017-10-17T01:53:10.214Z,8.24
2017-10-17T01:55:39.213Z,8.28
2017-10-17T01:58:18.949Z,8.30
2017-10-17T02:00:47.904Z,8.46
2017-10-17T02:03:17.184Z,8.56
2017-10-17T02:05:46.632Z,8.55
2017-10-17T02:08:15.655Z,8.48
2017-10-17T02:10:55.072Z,8.47
2017-10-17T02:13:24.382Z,8.34
2017-10-17T02:15:53.380Z,8.21
2017-10-17T02:18:23.741Z,8.21
2017-10-17T02:20:52.736Z,8.24
2017-10-17T02:23:22.253Z,8.18
2017-10-17T02:25:54.076Z,8.08
2017-10-17T02:28:27.638Z,7.98
2017-10-17T02:30:57.563Z,7.93
2017-10-17T02:33:37.316Z,7.89
2017-10-17T02:36:06.613Z,7.88
2017-10-17T02:38:35.890Z,7.90
2017-10-17T02:41:06.714Z,7.99
2017-10-17T02:43:39.303Z,8.05
2017-10-17T02:46:08.327Z,8.10
2017-10-17T02:48:41.922Z,8.06
2017-10-17T02:51:10.950Z,8.03
2017-10-17T02:53:40.260Z,8.04
2017-10-17T02:56:09.250Z,8.07
2017-10-17T02:58:38.277Z,8.07
2017-10-17T03:01:08.794Z,8.09
2017-10-17T03:03:43.661Z,8.18
2017-10-17T03:06:12.452Z,8.27
2017-10-17T03:08:41.769Z,8.33
2017-10-17T03:11:10.786Z,8.41
2017-10-17T03:16:40.717Z,8.51
2017-10-17T03:19:09.719Z,8.58
2017-10-17T03:21:41.444Z,8.57
2017-10-17T03:24:11.227Z,8.62
2017-10-17T03:26:40.640Z,8.72
2017-10-17T03:29:09.662Z,8.90
2017-10-17T03:31:38.925Z,8.97
2017-10-17T03:34:07.628Z,9.05
2017-10-17T03:36:38.649Z,9.26
2017-10-17T03:39:07.320Z,9.35
2017-10-17T03:41:36.620Z,9.41
2017-10-17T03:47:09.734Z,9.47
2017-10-17T03:49:38.686Z,9.52
2017-10-17T03:52:19.891Z,9.51
2017-10-17T03:54:49.113Z,9.56
2017-10-17T03:57:19.732Z,9.63
2017-10-17T04:00:03.126Z,9.72
2017-10-17T04:02:32.208Z,9.74
2017-10-17T04:05:17.524Z,9.77
2017-10-17T04:07:57.617Z,9.82
2017-10-17T04:10:48.729Z,9.94
2017-10-17T04:13:39.004Z,9.99
2017-10-17T04:16:14.132Z,9.89
2017-10-17T04:18:46.576Z,9.86
2017-10-17T04:21:20.699Z,9.97
2017-10-17T04:23:55.726Z,9.95
2017-10-17T04:26:24.429Z,9.83
2017-10-17T04:28:59.676Z,9.88
2017-10-17T04:31:48.764Z,10.01
2017-10-17T04:34:30.035Z,9.95
2017-10-17T04:39:55.324Z,10.03
2017-10-17T04:42:50.564Z,9.94
2017-10-17T04:45:40.175Z,9.95
2017-10-17T04:51:28.898Z,10.04
2017-10-17T04:54:18.289Z,10.07
2017-10-17T04:57:06.736Z,10.04
2017-10-17T04:59:41.320Z,10.02
2017-10-17T05:02:13.781Z,9.98
2017-10-17T05:04:45.139Z,9.94
2017-10-17T05:07:17.599Z,9.87
2017-10-17T05:09:49.242Z,9.93
2017-10-17T05:12:18.816Z,9.94
2017-10-17T05:14:47.511Z,10.02
2017-10-17T05:17:34.352Z,10.06
2017-10-17T05:23:06.938Z,9.98
2017-10-17T05:25:36.328Z,9.96
2017-10-17T05:28:05.959Z,9.99
2017-10-17T05:30:38.023Z,10.04
2017-10-17T05:33:14.173Z,10.17
2017-10-17T05:35:43.674Z,10.17
2017-10-17T05:38:12.675Z,10.16
2017-10-17T05:40:41.791Z,10.06
2017-10-17T05:43:17.305Z,10.00
2017-10-17T05:45:46.401Z,10.04
2017-10-17T05:48:15.953Z,10.11
2017-10-17T05:50:47.331Z,10.05
2017-10-17T05:53:16.294Z,10.08
2017-10-17T05:55:45.585Z,10.10
2017-10-17T05:58:14.885Z,10.11
2017-10-17T06:00:44.179Z,10.09
2017-10-17T06:03:13.529Z,10.07
2017-10-17T06:05:42.875Z,10.06
2017-10-17T06:08:12.137Z,10.15
2017-10-17T06:10:41.517Z,10.21
2017-10-17T06:13:10.808Z,10.24
2017-10-17T06:15:40.125Z,10.37
2017-10-17T06:18:09.921Z,10.28
2017-10-17T06:20:39.693Z,10.31
2017-10-17T06:23:09.548Z,10.46
2017-10-17T06:25:39.344Z,10.51
2017-10-17T06:28:09.227Z,10.56
2017-10-17T06:30:39.059Z,10.59
2017-10-17T06:33:08.968Z,10.59
2017-10-17T06:35:38.718Z,10.66
2017-10-17T06:38:08.498Z,10.76
2017-10-17T06:40:38.276Z,10.86
2017-10-17T06:43:08.062Z,10.90
2017-10-17T06:45:37.858Z,11.02
2017-10-17T06:48:07.829Z,11.08
2017-10-17T06:50:37.642Z,11.07
2017-10-17T06:53:07.234Z,10.92
2017-10-17T06:55:37.167Z,11.18
2017-10-17T06:58:07.184Z,11.32
2017-10-17T07:00:37.002Z,11.36
2017-10-17T07:03:06.784Z,11.31
2017-10-17T07:05:36.562Z,11.42
2017-10-17T07:08:06.375Z,11.34
2017-10-17T07:10:36.666Z,11.24
2017-10-17T07:13:06.447Z,11.25
2017-10-17T07:15:36.208Z,11.34
2017-10-17T07:18:05.972Z,11.53
2017-10-17T07:20:35.761Z,11.53
2017-10-17T07:23:05.525Z,11.70
2017-10-17T07:25:35.317Z,11.95
2017-10-17T07:28:04.758Z,11.93
2017-10-17T07:30:34.362Z,12.15
2017-10-17T07:33:04.144Z,12.30
2017-10-17T07:35:33.951Z,12.44
2017-10-17T07:38:03.700Z,12.50
2017-10-17T07:40:37.981Z,12.49
2017-10-17T07:43:07.594Z,12.56
2017-10-17T07:45:37.395Z,12.78
2017-10-17T07:48:06.970Z,12.82
2017-10-17T07:50:36.541Z,12.74
2017-10-17T07:53:06.210Z,13.10
2017-10-17T07:55:35.830Z,13.24
2017-10-17T07:58:05.620Z,13.22
2017-10-17T08:00:35.431Z,13.26
2017-10-17T08:03:05.194Z,13.27
2017-10-17T08:05:34.430Z,13.27
2017-10-17T08:08:03.921Z,13.48
2017-10-17T08:10:33.706Z,13.88
2017-10-17T08:13:03.473Z,13.80
2017-10-17T08:15:33.240Z,13.82
2017-10-17T08:18:02.816Z,13.83
2017-10-17T08:20:32.294Z,14.27
2017-10-17T08:23:01.763Z,14.37
2017-10-17T08:25:31.566Z,14.64
2017-10-17T08:28:01.342Z,14.56
2017-10-17T08:30:31.177Z,14.46
2017-10-17T08:33:00.920Z,14.63
2017-10-17T08:35:30.699Z,14.92
2017-10-17T08:38:00.493Z,14.83
2017-10-17T08:40:30.365Z,14.62
2017-10-17T08:43:00.549Z,14.80
2017-10-17T08:45:30.369Z,15.24
2017-10-17T08:47:59.962Z,15.59
2017-10-17T08:50:29.634Z,15.49
2017-10-17T08:52:58.913Z,16.18
2017-10-17T08:55:28.494Z,16.93
2017-10-17T08:57:57.962Z,17.04
2017-10-17T09:00:27.446Z,16.80
2017-10-17T09:02:56.913Z,17.11
2017-10-17T09:05:26.396Z,17.30
2017-10-17T09:07:55.942Z,17.89
2017-10-17T09:10:25.405Z,16.95
2017-10-17T09:12:54.919Z,17.71
2017-10-17T09:15:24.397Z,19.06
2017-10-17T09:17:53.694Z,20.22
2017-10-17T09:20:23.171Z,22.21
2017-10-17T09:22:52.656Z,23.49
2017-10-17T09:25:22.201Z,24.82
2017-10-17T09:27:51.681Z,26.73
2017-10-17T09:30:21.160Z,28.57
2017-10-17T09:32:50.667Z,29.39
2017-10-17T09:35:20.189Z,30.41
2017-10-17T09:37:49.605Z,29.60
2017-10-17T09:40:19.103Z,29.82
2017-10-17T09:42:48.615Z,31.36
2017-10-17T09:45:18.067Z,31.45
2017-10-17T09:47:47.553Z,30.51
2017-10-17T09:50:17.016Z,31.28
2017-10-17T09:52:46.553Z,31.01
2017-10-17T09:55:16.105Z,32.23
2017-10-17T09:57:45.575Z,31.93
2017-10-17T10:00:15.133Z,33.04
2017-10-17T10:02:44.535Z,30.54
2017-10-17T10:05:13.825Z,33.72
2017-10-17T10:07:43.107Z,33.54
2017-10-17T10:10:12.858Z,32.40
2017-10-17T10:12:42.343Z,31.81
2017-10-17T10:15:11.806Z,33.45
2017-10-17T10:17:41.091Z,34.61
2017-10-17T10:20:10.579Z,35.00
2017-10-17T10:22:39.862Z,36.58
2017-10-17T10:25:09.380Z,34.42
2017-10-17T10:27:38.671Z,36.29
2017-10-17T10:30:08.154Z,32.86
2017-10-17T10:32:37.658Z,34.91
2017-10-17T10:35:07.196Z,36.40
2017-10-17T10:37:36.676Z,28.36
2017-10-17T10:40:06.161Z,28.07
2017-10-17T10:42:35.678Z,35.88
2017-10-17T10:45:05.176Z,36.59
2017-10-17T10:47:34.674Z,32.39
2017-10-17T10:50:04.230Z,29.59
2017-10-17T10:52:33.734Z,32.22
2017-10-17T10:55:03.265Z,30.30
2017-10-17T10:57:32.731Z,33.08
2017-10-17T11:00:02.294Z,37.27
2017-10-17T11:02:31.630Z,37.66
2017-10-17T11:05:00.933Z,38.79
2017-10-17T11:07:30.394Z,38.86
2017-10-17T11:09:59.845Z,34.74
2017-10-17T11:12:29.315Z,36.67
2017-10-17T11:14:58.872Z,35.42
2017-10-17T11:17:28.345Z,36.52
2017-10-17T11:19:57.817Z,34.16
2017-10-17T11:22:27.126Z,35.44
2017-10-17T11:25:00.919Z,38.14
2017-10-17T11:27:30.429Z,42.21
2017-10-17T11:29:59.713Z,41.30
2017-10-17T11:32:29.169Z,43.85
2017-10-17T11:34:58.689Z,42.52
2017-10-17T11:37:28.124Z,42.51
2017-10-17T11:39:57.596Z,43.67
2017-10-17T11:42:38.154Z,43.97
2017-10-17T11:45:07.238Z,43.98
2017-10-17T11:47:36.874Z,44.63
2017-10-17T11:50:06.315Z,43.06
2017-10-17T11:52:37.080Z,42.60
2017-10-17T11:55:09.216Z,43.85
2017-10-17T11:57:38.941Z,42.96
2017-10-17T12:00:08.352Z,43.37
2017-10-17T12:02:37.998Z,43.73
2017-10-17T12:05:07.438Z,43.71
2017-10-17T12:07:37.332Z,43.73
2017-10-17T12:10:07.385Z,43.29
2017-10-17T12:12:40.442Z,43.52
2017-10-17T12:15:10.251Z,43.34
2017-10-17T12:17:39.882Z,42.44
2017-10-17T12:20:09.460Z,39.70
2017-10-17T12:22:39.061Z,42.71
2017-10-17T12:25:08.698Z,43.26
2017-10-17T12:27:38.209Z,42.94
2017-10-17T12:30:07.841Z,39.20
2017-10-17T12:32:37.539Z,32.29
2017-10-17T12:35:07.137Z,34.56
2017-10-17T12:37:36.688Z,39.34
2017-10-17T12:40:06.330Z,41.65
2017-10-17T12:42:35.893Z,37.79
2017-10-17T12:45:05.505Z,38.46
2017-10-17T12:47:35.271Z,34.21
2017-10-17T12:50:05.124Z,41.35
2017-10-17T12:52:34.605Z,42.49
2017-10-17T12:55:04.117Z,42.77
2017-10-17T12:57:33.725Z,43.19
2017-10-17T13:00:03.168Z,41.59
2017-10-17T13:02:32.589Z,38.14
2017-10-17T13:05:01.936Z,39.30
2017-10-17T13:07:31.388Z,38.97
2017-10-17T13:10:01.033Z,35.90
2017-10-17T13:12:30.649Z,37.24
2017-10-17T13:15:00.268Z,38.74
2017-10-17T13:17:29.609Z,36.73
2017-10-17T13:19:59.292Z,36.77
2017-10-17T13:22:28.525Z,38.76
2017-10-17T13:24:57.694Z,34.20
2017-10-17T13:27:27.285Z,34.51
2017-10-17T13:29:56.692Z,36.78
2017-10-17T13:32:26.265Z,38.30
2017-10-17T13:34:55.846Z,37.78
2017-10-17T13:37:25.426Z,38.22
2017-10-17T13:39:55.088Z,38.63
2017-10-17T13:42:24.758Z,41.49
2017-10-17T13:44:54.230Z,38.31
2017-10-17T13:47:23.755Z,40.00
2017-10-17T13:49:53.337Z,36.56
2017-10-17T13:52:22.921Z,39.00
2017-10-17T13:54:52.559Z,41.04
2017-10-17T13:57:22.078Z,37.54
2017-10-17T13:59:51.672Z,36.51
2017-10-17T14:02:21.243Z,39.54
2017-10-17T14:04:50.740Z,37.77
2017-10-17T14:07:20.254Z,35.76
2017-10-17T14:09:49.804Z,36.98
2017-10-17T14:12:19.383Z,37.93
2017-10-17T14:14:48.888Z,36.56
2017-10-17T14:17:18.397Z,34.42
2017-10-17T14:19:48.049Z,34.48
2017-10-17T14:22:17.591Z,31.12
2017-10-17T14:24:47.182Z,28.97
2017-10-17T14:27:16.714Z,31.49
2017-10-17T14:29:46.221Z,29.63
2017-10-17T14:32:15.758Z,27.42
2017-10-17T14:34:45.666Z,26.89
2017-10-17T14:37:15.312Z,26.92
2017-10-17T14:39:44.870Z,24.74
2017-10-17T14:42:14.386Z,24.34
2017-10-17T14:44:44.746Z,23.72
2017-10-17T14:47:14.330Z,24.18
2017-10-17T14:49:43.842Z,23.87
2017-10-17T14:52:13.401Z,23.50
2017-10-17T14:54:42.905Z,22.97
2017-10-17T14:57:12.318Z,22.82
2017-10-17T14:59:41.838Z,22.76
2017-10-17T15:02:11.566Z,22.58
2017-10-17T15:04:41.240Z,22.64
2017-10-17T15:07:10.762Z,22.56
2017-10-17T15:09:40.552Z,22.04
2017-10-17T15:12:10.105Z,22.00
2017-10-17T15:14:39.666Z,21.76
2017-10-17T15:17:09.450Z,21.74
2017-10-17T15:19:38.993Z,21.73
2017-10-17T15:22:08.608Z,21.46
2017-10-17T15:24:38.337Z,21.32
2017-10-17T15:27:08.038Z,21.31
2017-10-17T15:29:37.418Z,21.18
2017-10-17T15:32:07.048Z,21.04
2017-10-17T15:34:36.813Z,20.92
2017-10-17T15:37:06.369Z,20.77
2017-10-17T15:39:36.882Z,20.59
2017-10-17T15:42:06.786Z,20.51
2017-10-17T15:44:36.469Z,20.30
2017-10-17T15:47:06.080Z,20.16
2017-10-17T15:49:35.542Z,19.95
2017-10-17T15:52:05.026Z,19.69
2017-10-17T15:54:34.494Z,19.46
2017-10-17T15:57:03.960Z,19.20
2017-10-17T15:59:34.106Z,18.94
2017-10-17T16:02:03.645Z,18.78
2017-10-17T16:04:33.364Z,18.55
2017-10-17T16:07:02.880Z,18.31
2017-10-17T16:09:32.342Z,18.08
2017-10-17T16:12:01.818Z,17.88
2017-10-17T16:14:31.356Z,17.64
2017-10-17T16:17:00.822Z,17.44
2017-10-17T16:19:30.280Z,17.43
2017-10-17T16:21:59.747Z,17.40
2017-10-17T16:24:29.298Z,17.32
2017-10-17T16:26:58.736Z,17.23
2017-10-17T16:29:28.097Z,17.10
2017-10-17T16:31:57.361Z,17.00
2017-10-17T16:34:26.630Z,16.91
2017-10-17T16:36:56.217Z,16.79
2017-10-17T16:39:25.672Z,16.70
2017-10-17T16:41:55.135Z,16.55
2017-10-17T16:44:24.743Z,16.42
2017-10-17T16:46:54.238Z,16.30
2017-10-17T16:49:23.698Z,16.22
2017-10-17T16:51:52.995Z,16.12
2017-10-17T16:54:22.909Z,15.98
2017-10-17T16:56:52.208Z,15.83
2017-10-17T16:59:21.497Z,15.80
2017-10-17T17:01:50.799Z,15.77
2017-10-17T17:04:20.373Z,15.69
2017-10-17T17:06:49.827Z,15.62
2017-10-17T17:09:19.093Z,15.56
2017-10-17T17:11:48.671Z,15.50
2017-10-17T17:14:18.346Z,15.44
2017-10-17T17:16:47.809Z,15.40
2017-10-17T17:19:17.289Z,15.25
2017-10-17T17:21:46.769Z,15.05
2017-10-17T17:24:16.236Z,15.02
2017-10-17T17:26:45.708Z,15.05
2017-10-17T17:29:15.039Z,15.03
2017-10-17T17:31:44.498Z,14.88
2017-10-17T17:34:14.436Z,14.82
2017-10-17T17:36:44.163Z,14.70
2017-10-17T17:39:13.640Z,14.63
2017-10-17T17:41:42.911Z,14.55
2017-10-17T17:44:12.225Z,14.53
2017-10-17T17:46:41.687Z,14.52
2017-10-17T17:49:11.275Z,14.47
2017-10-17T17:51:40.647Z,14.49
2017-10-17T17:54:10.095Z,14.49
2017-10-17T17:56:39.593Z,14.36
2017-10-17T17:59:09.054Z,14.41
2017-10-17T18:01:38.524Z,14.34
2017-10-17T18:04:10.051Z,14.23
2017-10-17T18:06:39.761Z,14.15
2017-10-17T18:09:09.259Z,14.18
2017-10-17T18:11:38.554Z,14.13
2017-10-17T18:14:07.810Z,13.97
2017-10-17T18:16:37.084Z,13.97
2017-10-17T18:19:07.551Z,13.85
2017-10-17T18:21:37.312Z,13.75
2017-10-17T18:24:07.816Z,13.70
2017-10-17T18:26:37.835Z,13.64
2017-10-17T18:29:08.283Z,13.57
2017-10-17T18:31:38.633Z,13.56
2017-10-17T18:34:09.151Z,13.53
2017-10-17T18:36:39.640Z,13.48
2017-10-17T18:39:10.209Z,13.53
2017-10-17T18:41:40.988Z,13.64
2017-10-17T18:44:11.016Z,13.68
2017-10-17T18:46:41.023Z,13.60
2017-10-17T18:49:11.151Z,13.44
2017-10-17T18:51:41.528Z,13.38
2017-10-17T18:54:11.619Z,13.37
2017-10-17T18:56:41.394Z,13.31
2017-10-17T18:59:11.168Z,13.22
2017-10-17T19:01:40.854Z,13.23
2017-10-17T19:04:10.658Z,13.18
2017-10-17T19:06:40.431Z,13.03
2017-10-17T19:09:10.205Z,12.97
2017-10-17T19:11:40.388Z,12.97
2017-10-17T19:14:10.530Z,12.94
2017-10-17T19:16:40.791Z,12.88
2017-10-17T19:19:10.990Z,12.92
2017-10-17T19:21:41.366Z,12.89
2017-10-17T19:24:11.457Z,12.85
2017-10-17T19:26:41.554Z,12.78
2017-10-17T19:29:11.712Z,12.78
2017-10-17T19:31:41.903Z,12.74
2017-10-17T19:34:12.240Z,12.72
2017-10-17T19:36:42.525Z,12.66
2017-10-17T19:39:12.840Z,12.60
2017-10-17T19:41:42.747Z,12.56
2017-10-17T19:44:13.041Z,12.53
2017-10-17T19:46:43.088Z,12.48
2017-10-17T19:49:13.358Z,12.45
2017-10-17T19:51:42.821Z,12.46
2017-10-17T19:54:12.684Z,12.63
2017-10-17T19:56:42.808Z,12.65
2017-10-17T19:59:12.757Z,12.57
2017-10-17T20:01:43.009Z,12.40
2017-10-17T20:04:12.884Z,12.40
2017-10-17T20:06:43.115Z,12.31
2017-10-17T20:09:13.359Z,12.15
2017-10-17T20:11:43.716Z,12.02
2017-10-17T20:14:13.854Z,12.02
2017-10-17T20:16:43.635Z,11.88
2017-10-17T20:19:13.939Z,11.74
2017-10-17T20:21:44.098Z,11.67
2017-10-17T20:24:14.154Z,11.60
2017-10-17T20:26:44.144Z,11.58
2017-10-17T20:29:14.421Z,11.52
2017-10-17T20:31:44.531Z,11.60
2017-10-17T20:34:14.296Z,11.65
2017-10-17T20:36:44.221Z,11.54
2017-10-17T20:39:14.138Z,11.44
2017-10-17T20:41:47.734Z,11.37
2017-10-17T20:44:17.565Z,11.30
2017-10-17T20:46:47.141Z,11.31
2017-10-17T20:49:16.904Z,11.32
2017-10-17T20:51:48.617Z,11.43
2017-10-17T20:54:19.076Z,11.44
2017-10-17T20:56:49.347Z,11.45
2017-10-17T20:59:19.414Z,11.40
2017-10-17T21:01:49.405Z,11.30
2017-10-17T21:04:19.399Z,11.20
2017-10-17T21:06:49.313Z,11.08
2017-10-17T21:09:19.233Z,11.01
2017-10-17T21:11:49.082Z,10.97
2017-10-17T21:14:18.680Z,11.01
2017-10-17T21:16:48.831Z,10.95
2017-10-17T21:19:18.527Z,10.90
2017-10-17T21:21:48.486Z,10.83
2017-10-17T21:24:18.398Z,10.78
2017-10-17T21:26:48.262Z,10.75
2017-10-17T21:29:18.178Z,10.72
2017-10-17T21:31:47.763Z,10.67
2017-10-17T21:34:17.539Z,10.67
2017-10-17T21:36:47.424Z,10.69
2017-10-17T21:39:17.271Z,10.66
2017-10-17T21:41:47.035Z,10.61
2017-10-17T21:44:16.927Z,10.59
2017-10-17T21:46:46.855Z,10.70
2017-10-17T21:49:16.730Z,10.61
2017-10-17T21:51:46.725Z,10.54
2017-10-17T21:54:16.629Z,10.62
2017-10-17T21:56:46.544Z,10.55
2017-10-17T21:59:16.368Z,10.52
2017-10-17T22:01:46.500Z,10.50
2017-10-17T22:04:16.258Z,10.48
2017-10-17T22:06:46.115Z,10.39
2017-10-17T22:09:15.737Z,10.36
2017-10-17T22:11:45.628Z,10.38
2017-10-17T22:14:15.573Z,10.38
2017-10-17T22:16:45.408Z,10.34
2017-10-17T22:19:15.272Z,10.28
2017-10-17T22:21:45.349Z,10.19
2017-10-17T22:24:15.134Z,10.13
2017-10-17T22:26:44.852Z,10.12
2017-10-17T22:29:14.787Z,10.18
2017-10-17T22:31:44.736Z,10.15
2017-10-17T22:34:14.800Z,10.13
2017-10-17T22:36:44.668Z,10.11
2017-10-17T22:39:14.574Z,10.09
2017-10-17T22:41:44.497Z,10.05
2017-10-17T22:44:14.472Z,10.00
2017-10-17T22:46:44.267Z,10.02
2017-10-17T22:49:14.958Z,10.03
2017-10-17T22:51:44.836Z,10.00
2017-10-17T22:54:14.810Z,10.12
2017-10-17T22:56:44.749Z,10.06
2017-10-17T22:59:14.635Z,9.99
2017-10-17T23:01:44.358Z,9.91
2017-10-17T23:04:14.472Z,9.86
2017-10-17T23:06:44.228Z,9.83
2017-10-17T23:09:14.075Z,9.83
2017-10-17T23:11:43.963Z,9.92
2017-10-17T23:14:13.912Z,9.92
2017-10-17T23:16:54.902Z,9.93
2017-10-17T23:19:35.885Z,9.86
2017-10-17T23:22:05.607Z,9.81
2017-10-17T23:24:35.345Z,9.83
2017-10-17T23:27:05.239Z,9.82
2017-10-17T23:29:35.133Z,9.78
2017-10-17T23:32:05.075Z,9.80
2017-10-17T23:34:34.831Z,9.82
2017-10-17T23:37:04.534Z,9.84
2017-10-17T23:39:34.395Z,9.84
2017-10-17T23:42:04.166Z,9.78
2017-10-17T23:44:34.074Z,9.75
2017-10-17T23:47:03.963Z,9.67
2017-10-17T23:49:33.859Z,9.67
2017-10-17T23:52:03.821Z,9.59
2017-10-17T23:54:33.686Z,9.58
2017-10-17T23:57:03.551Z,9.59
2017-10-17T23:59:33.397Z,9.56
